Time;durP1;ratioP1;P1;durP2;ratioP2;P2;SDS_P1;SDS_P2;PMS_P1;PMS_P2;Temp;Humidity;BMP_temperature;BMP_pressure;BME280_temperature;BME280_humidity;BME280_pressure;Samples;Min_cycle;Max_cycle;Signal;HPM_P1;HPM_P2
2022/03/03 00:01:30;;;;;;;;;85.00;70.67;;;;;10.43;57.28;101574.97;5031345;28;50638;-65
2022/03/03 00:03:55;;;;;;;;;86.00;75.00;;;;;9.89;56.59;101479.47;5031389;28;49871;-63
2022/03/03 00:06:21;;;;;;;;;83.67;65.00;;;;;10.41;56.49;101578.38;5031407;28;49804;-64
2022/03/03 00:08:46;;;;;;;;;87.00;72.00;;;;;10.31;56.82;101564.91;5031322;28;49780;-63
2022/03/03 00:11:11;;;;;;;;;82.00;64.67;;;;;10.33;57.09;101570.25;5031068;28;49960;-65
2022/03/03 00:13:37;;;;;;;;;84.00;63.33;;;;;10.39;56.59;101566.94;5030870;28;49684;-63
2022/03/03 00:16:03;;;;;;;;;83.67;68.00;;;;;10.22;57.40;101542.72;5031075;28;49584;-63
2022/03/03 00:18:29;;;;;;;;;84.67;67.33;;;;;10.19;56.97;101543.47;5031321;28;49822;-63
2022/03/03 00:20:54;;;;;;;;;74.33;58.00;;;;;9.83;57.15;101479.22;5030914;28;50478;-64
2022/03/03 00:23:19;;;;;;;;;86.33;68.33;;;;;10.35;57.39;101572.94;5030980;28;49678;-63
2022/03/03 00:25:44;;;;;;;;;86.67;65.67;;;;;10.28;57.13;101570.06;5030899;28;50109;-63
2022/03/03 00:28:10;;;;;;;;;92.00;75.67;;;;;10.35;57.74;101568.56;5031046;28;49884;-63
2022/03/03 00:30:35;;;;;;;;;89.67;74.00;;;;;9.54;57.38;101449.38;5030519;28;50398;-63
2022/03/03 00:33:00;;;;;;;;;87.33;68.33;;;;;10.24;57.34;101572.56;5030724;28;49607;-67
2022/03/03 00:35:26;;;;;;;;;78.33;61.00;;;;;10.20;57.29;101560.13;5030896;28;49589;-64
2022/03/03 00:37:51;;;;;;;;;86.33;64.33;;;;;10.34;57.29;101577.28;5030967;28;50281;-63
2022/03/03 00:40:16;;;;;;;;;82.67;64.00;;;;;10.33;57.25;101575.50;5030637;28;50417;-64
2022/03/03 00:42:42;;;;;;;;;81.00;62.67;;;;;10.31;57.29;101577.16;5030793;28;49733;-64
2022/03/03 00:45:08;;;;;;;;;84.67;67.67;;;;;10.15;57.39;101546.84;5030467;28;49874;-64
2022/03/03 00:47:33;;;;;;;;;84.00;71.00;;;;;10.29;57.17;101592.84;5030559;28;49827;-64
2022/03/03 00:49:58;;;;;;;;;83.00;65.00;;;;;10.13;57.43;101563.34;5030361;28;50353;-64
2022/03/03 00:52:24;;;;;;;;;82.33;66.00;;;;;10.24;58.13;101580.44;5030400;28;49840;-63
2022/03/03 00:54:49;;;;;;;;;84.33;63.33;;;;;10.17;58.27;101573.13;5030617;28;49871;-63
2022/03/03 00:57:14;;;;;;;;;80.67;62.33;;;;;10.23;57.46;101587.41;5030672;28;49645;-63
2022/03/03 00:59:40;;;;;;;;;80.67;66.67;;;;;10.22;58.54;101577.72;5030371;28;49726;-64
2022/03/03 01:02:05;;;;;;;;;80.33;62.33;;;;;10.01;57.99;101548.97;5030289;28;49785;-63
2022/03/03 01:04:30;;;;;;;;;80.33;62.33;;;;;10.21;58.34;101580.25;5030315;28;49930;-64
2022/03/03 01:06:56;;;;;;;;;81.67;64.67;;;;;10.01;58.36;101555.94;5030468;28;49678;-64
2022/03/03 01:09:21;;;;;;;;;81.67;62.67;;;;;10.12;58.24;101567.72;5030101;28;49721;-64
2022/03/03 01:11:46;;;;;;;;;83.33;64.67;;;;;10.12;58.30;101570.34;5012372;28;50167;-65
2022/03/03 01:14:12;;;;;;;;;81.00;63.67;;;;;10.02;58.28;101557.72;5030454;28;49770;-64
2022/03/03 01:16:37;;;;;;;;;75.33;61.00;;;;;9.95;58.40;101546.16;5030328;28;49631;-63
2022/03/03 01:19:04;;;;;;;;;76.00;61.33;;;;;10.11;58.43;101567.66;5029216;28;50409;-65
2022/03/03 01:21:30;;;;;;;;;83.00;64.00;;;;;10.14;58.27;101570.41;5029672;28;49638;-64
2022/03/03 01:23:55;;;;;;;;;80.33;62.00;;;;;9.85;58.38;101532.66;5029857;28;49812;-63
2022/03/03 01:26:22;;;;;;;;;80.67;62.00;;;;;10.06;58.56;101571.88;5030216;28;50180;-63
2022/03/03 01:28:48;;;;;;;;;84.00;62.33;;;;;9.84;58.58;101528.22;5029348;28;50521;-63
2022/03/03 01:31:13;;;;;;;;;84.67;65.67;;;;;10.06;58.50;101564.88;5030212;28;49814;-63
2022/03/03 01:33:39;;;;;;;;;76.67;61.67;;;;;10.04;58.53;101567.47;5030315;28;49938;-63
2022/03/03 01:36:04;;;;;;;;;81.67;64.00;;;;;10.03;58.51;101568.28;5033801;28;49845;-63
2022/03/03 01:38:29;;;;;;;;;80.67;62.00;;;;;10.00;59.00;101573.41;5033404;28;50385;-64
2022/03/03 01:40:55;;;;;;;;;85.33;67.67;;;;;9.99;58.44;101563.78;5033433;28;49723;-63
2022/03/03 01:43:20;;;;;;;;;79.67;63.00;;;;;9.97;59.15;101562.81;5033387;28;49641;-63
2022/03/03 01:45:45;;;;;;;;;84.67;62.00;;;;;9.77;58.90;101531.47;5033469;28;49935;-63
2022/03/03 01:48:11;;;;;;;;;76.00;62.00;;;;;9.92;59.16;101561.75;5033292;28;49847;-63
2022/03/03 01:50:37;;;;;;;;;82.33;64.67;;;;;9.67;59.17;101514.53;5033369;28;49926;-63
2022/03/03 01:53:03;;;;;;;;;82.00;63.00;;;;;9.81;59.25;101543.84;5033531;28;49819;-64
2022/03/03 01:55:29;;;;;;;;;80.00;63.67;;;;;9.73;58.99;101536.59;5032202;28;49988;-63
2022/03/03 01:57:57;;;;;;;;;83.33;69.00;;;;;9.85;59.69;101556.25;5032827;28;50434;-63
2022/03/03 02:00:23;;;;;;;;;77.67;61.67;;;;;9.83;59.67;101561.41;5033065;28;49688;-64
2022/03/03 02:02:48;;;;;;;;;80.33;64.33;;;;;9.85;59.18;101561.50;5033062;28;49856;-63
2022/03/03 02:05:14;;;;;;;;;79.67;62.33;;;;;9.31;59.56;101457.28;5033575;28;49864;-64
2022/03/03 02:07:40;;;;;;;;;82.67;62.33;;;;;9.89;60.11;101553.78;5033021;28;50664;-63
2022/03/03 02:10:05;;;;;;;;;86.00;68.67;;;;;9.79;59.83;101537.66;5015127;28;49985;-63
2022/03/03 02:12:31;;;;;;;;;85.00;65.33;;;;;9.99;59.90;101555.91;5033334;28;49996;-64
2022/03/03 02:14:56;;;;;;;;;83.00;66.67;;;;;9.99;59.20;101552.38;5033182;28;49937;-63
2022/03/03 02:17:22;;;;;;;;;80.67;63.67;;;;;10.07;59.78;101557.91;5032620;28;50469;-63
2022/03/03 02:19:47;;;;;;;;;79.00;61.67;;;;;10.12;59.70;101561.56;5032792;28;50438;-63
2022/03/03 02:22:13;;;;;;;;;81.33;63.00;;;;;9.60;58.89;101460.97;5032966;28;49843;-63
2022/03/03 02:24:39;;;;;;;;;80.00;62.67;;;;;10.14;59.20;101550.31;5032949;28;49702;-64
2022/03/03 02:27:05;;;;;;;;;76.67;60.00;;;;;10.17;59.08;101553.03;5032799;28;49740;-64
2022/03/03 02:29:32;;;;;;;;;79.00;61.00;;;;;10.12;59.64;101546.72;5032844;28;49624;-64
2022/03/03 02:31:59;;;;;;;;;79.33;63.33;;;;;10.22;59.18;101546.22;5032923;28;49725;-65
2022/03/03 02:34:24;;;;;;;;;80.67;62.00;;;;;10.26;59.41;101539.38;5026494;28;49903;-64
2022/03/03 02:36:49;;;;;;;;;77.33;62.33;;;;;10.20;59.00;101524.28;5032401;28;50402;-63
2022/03/03 02:39:15;;;;;;;;;80.00;63.00;;;;;10.19;58.53;101513.72;5032699;28;49789;-64
2022/03/03 02:41:40;;;;;;;;;84.00;64.00;;;;;10.38;59.64;101544.16;5032580;28;49588;-64
2022/03/03 02:44:06;;;;;;;;;80.33;63.33;;;;;10.22;58.97;101542.72;5032644;28;49664;-63
2022/03/03 02:46:31;;;;;;;;;81.00;62.00;;;;;10.42;58.54;101533.81;5032421;28;49875;-64
2022/03/03 02:48:57;;;;;;;;;77.33;59.67;;;;;10.42;59.04;101528.56;5032379;28;49766;-63
2022/03/03 02:51:23;;;;;;;;;76.33;59.33;;;;;10.41;59.02;101515.38;5032403;28;49736;-63
2022/03/03 02:53:48;;;;;;;;;83.67;63.33;;;;;10.46;58.95;101526.94;5032361;28;49627;-63
2022/03/03 02:56:14;;;;;;;;;82.67;62.67;;;;;10.27;58.75;101486.06;5014175;28;51715;-64
2022/03/03 02:58:39;;;;;;;;;82.33;59.33;;;;;10.43;58.78;101521.59;5032307;28;49790;-64
2022/03/03 03:01:06;;;;;;;;;81.00;60.25;;;;;10.45;59.11;101518.16;5032503;28;49962;-64
2022/03/03 03:03:32;;;;;;;;;83.33;65.67;;;;;10.46;58.58;101508.56;5032501;28;49686;-64
2022/03/03 03:05:57;;;;;;;;;80.00;61.33;;;;;10.31;59.24;101488.81;5032061;28;50078;-63
2022/03/03 03:08:23;;;;;;;;;79.33;62.00;;;;;10.33;58.80;101475.78;5014089;28;49860;-64
2022/03/03 03:10:48;;;;;;;;;76.00;58.25;;;;;10.34;58.68;101476.66;5032072;28;49861;-63
2022/03/03 03:13:14;;;;;;;;;77.67;62.33;;;;;10.26;58.42;101458.91;5032062;28;49716;-64
2022/03/03 03:15:41;;;;;;;;;80.67;63.67;;;;;10.50;59.14;101502.56;5031918;28;51444;-64
2022/03/03 03:18:12;;;;;;;;;74.67;56.67;;;;;10.48;59.30;101493.75;5031954;28;49946;-63
2022/03/03 03:20:39;;;;;;;;;76.33;60.33;;;;;10.41;58.37;101483.88;5032248;28;49753;-65
2022/03/03 03:23:04;;;;;;;;;77.00;59.67;;;;;10.49;58.34;101496.41;5032260;28;49721;-63
2022/03/03 03:25:30;;;;;;;;;76.00;60.33;;;;;10.48;58.48;101492.00;5031281;28;50321;-63
2022/03/03 03:27:55;;;;;;;;;76.67;60.00;;;;;10.44;58.88;101481.38;5031734;28;49888;-64
2022/03/03 03:30:20;;;;;;;;;78.67;63.00;;;;;10.41;58.64;101471.63;5031501;28;54103;-63
2022/03/03 03:32:46;;;;;;;;;79.33;62.33;;;;;10.29;58.79;101452.88;5031918;28;49793;-63
2022/03/03 03:35:11;;;;;;;;;79.33;62.33;;;;;10.50;58.82;101481.56;5031640;28;49720;-63
2022/03/03 03:37:37;;;;;;;;;81.33;60.33;;;;;10.37;58.90;101455.75;5031572;28;49882;-63
2022/03/03 03:40:07;;;;;;;;;80.67;62.67;;;;;10.51;58.69;101462.31;5031802;28;49683;-63
2022/03/03 03:42:33;;;;;;;;;79.00;61.00;;;;;10.65;59.07;101474.19;5014059;28;49844;-63
2022/03/03 03:44:59;;;;;;;;;80.67;62.33;;;;;10.62;58.46;101462.69;5031280;28;50778;-63
2022/03/03 03:47:24;;;;;;;;;82.67;63.67;;;;;10.55;59.01;101452.00;5030636;28;49892;-64
2022/03/03 03:49:50;;;;;;;;;74.50;58.75;;;;;10.57;58.88;101450.28;5030339;28;49827;-64
2022/03/03 03:52:15;;;;;;;;;81.00;63.00;;;;;10.59;59.06;101445.09;5031406;28;49652;-64
2022/03/03 03:54:41;;;;;;;;;80.00;63.33;;;;;10.71;58.51;101461.25;5031243;28;51062;-64
2022/03/03 03:57:06;;;;;;;;;81.33;62.67;;;;;10.65;58.85;101453.16;5030693;28;49874;-64
2022/03/03 03:59:31;;;;;;;;;75.00;60.00;;;;;10.71;59.02;101463.88;5031614;28;49806;-64
2022/03/03 04:01:57;;;;;;;;;74.67;60.67;;;;;10.67;58.39;101451.47;5031725;28;49943;-64
2022/03/03 04:04:22;;;;;;;;;77.67;60.67;;;;;10.68;58.71;101449.75;5031156;28;49747;-64
2022/03/03 04:06:48;;;;;;;;;77.67;60.00;;;;;10.53;58.57;101431.78;5029999;28;49641;-64
2022/03/03 04:09:13;;;;;;;;;74.50;58.25;;;;;10.71;58.48;101453.38;5031054;28;50220;-64
2022/03/03 04:11:38;;;;;;;;;81.33;64.67;;;;;10.58;58.75;101431.06;5031506;28;50070;-63
2022/03/03 04:14:04;;;;;;;;;76.33;61.00;;;;;10.35;59.02;101394.47;5031104;28;50387;-64
2022/03/03 04:16:29;;;;;;;;;71.67;56.33;;;;;10.75;59.14;101455.25;5013216;28;49841;-65
2022/03/03 04:18:55;;;;;;;;;79.33;61.67;;;;;10.77;58.71;101442.16;5031117;28;49792;-64
2022/03/03 04:21:20;;;;;;;;;78.33;62.33;;;;;10.56;58.54;101396.00;5031152;28;49720;-65
2022/03/03 04:23:46;;;;;;;;;75.75;60.00;;;;;10.80;58.94;101437.88;5030588;28;50401;-64
2022/03/03 04:26:11;;;;;;;;;81.00;64.67;;;;;10.64;58.70;101398.00;5030744;28;49779;-64
2022/03/03 04:28:36;;;;;;;;;76.50;59.75;;;;;10.83;58.88;101418.72;5030889;28;49658;-64
2022/03/03 04:31:03;;;;;;;;;76.50;60.00;;;;;10.81;58.39;101428.28;5031189;28;49863;-64
2022/03/03 04:33:29;;;;;;;;;71.33;56.00;;;;;10.56;58.42;101385.50;5030704;28;51093;-66
2022/03/03 04:35:55;;;;;;;;;71.75;56.75;;;;;10.42;59.12;101355.34;5030821;28;49796;-64
2022/03/03 04:38:20;;;;;;;;;73.25;57.25;;;;;10.85;59.33;101417.91;5030687;28;49804;-65
2022/03/03 04:40:46;;;;;;;;;74.75;58.75;;;;;10.85;58.70;101425.78;5030728;28;49799;-65
2022/03/03 04:43:11;;;;;;;;;74.00;57.25;;;;;10.72;59.68;101397.38;5030375;28;53437;-63
2022/03/03 04:45:36;;;;;;;;;76.25;60.00;;;;;10.79;59.60;101393.19;5030257;28;53720;-66
2022/03/03 04:48:02;;;;;;;;;81.67;64.67;;;;;10.93;59.02;101419.88;5030696;28;49635;-64
2022/03/03 04:50:27;;;;;;;;;75.00;61.00;;;;;10.74;59.37;101379.94;5030967;28;49924;-64
2022/03/03 04:52:53;;;;;;;;;74.00;59.33;;;;;10.79;58.92;101393.19;5030493;28;50266;-65
2022/03/03 04:55:19;;;;;;;;;76.00;60.00;;;;;10.77;59.43;101392.25;5030476;28;49720;-64
2022/03/03 04:57:44;;;;;;;;;73.75;57.00;;;;;10.63;59.27;101346.31;5030336;28;49794;-64
2022/03/03 05:00:10;;;;;;;;;70.75;57.00;;;;;10.93;59.62;101398.88;5030616;28;49823;-64
2022/03/03 05:02:36;;;;;;;;;78.33;62.33;;;;;10.92;59.09;101404.97;5030292;28;50598;-64
2022/03/03 05:05:01;;;;;;;;;79.67;59.67;;;;;10.85;59.15;101410.03;5030452;28;49800;-64
2022/03/03 05:07:26;;;;;;;;;77.33;61.67;;;;;10.83;59.60;101398.59;5030585;28;50198;-64
2022/03/03 05:09:51;;;;;;;;;81.00;58.33;;;;;10.87;59.74;101404.81;5029665;28;49875;-64
2022/03/03 05:12:17;;;;;;;;;78.33;62.33;;;;;10.72;59.74;101371.13;5030398;28;49868;-64
2022/03/03 05:14:42;;;;;;;;;80.67;63.00;;;;;10.82;59.74;101396.81;5030374;28;50231;-65
2022/03/03 05:17:08;;;;;;;;;73.00;57.67;;;;;10.76;60.30;101401.88;5030186;28;49816;-64
2022/03/03 05:19:33;;;;;;;;;74.67;57.00;;;;;10.78;59.87;101402.78;5030296;28;49854;-65
2022/03/03 05:21:58;;;;;;;;;77.75;58.00;;;;;10.83;60.34;101402.97;5029717;28;50632;-65
2022/03/03 05:24:24;;;;;;;;;81.33;62.33;;;;;10.51;59.86;101347.72;5030035;28;49721;-66
2022/03/03 05:26:50;;;;;;;;;81.67;63.33;;;;;10.79;59.81;101406.31;5030098;28;49608;-65
2022/03/03 05:29:16;;;;;;;;;76.25;58.75;;;;;10.61;59.98;101375.13;5030449;28;49971;-65
2022/03/03 05:31:41;;;;;;;;;76.67;61.33;;;;;10.81;60.06;101397.66;5029714;28;52366;-65
2022/03/03 05:34:08;;;;;;;;;75.00;59.50;;;;;10.74;59.95;101402.69;5029959;28;49834;-65
2022/03/03 05:36:38;;;;;;;;;79.00;61.00;;;;;10.84;59.66;101410.88;5029865;28;49782;-66
2022/03/03 05:39:04;;;;;;;;;78.00;61.67;;;;;10.77;59.93;101389.63;5030009;28;49750;-66
2022/03/03 05:41:30;;;;;;;;;73.50;57.75;;;;;10.86;59.75;101410.91;5029783;28;49892;-65
2022/03/03 05:43:55;;;;;;;;;79.67;61.67;;;;;10.75;60.15;101380.81;5029986;28;49656;-65
2022/03/03 05:46:21;;;;;;;;;86.67;63.00;;;;;10.91;59.80;101411.06;5029360;28;49832;-65
2022/03/03 05:48:48;;;;;;;;;82.00;62.33;;;;;10.78;59.71;101388.78;5030120;28;49827;-65
2022/03/03 05:51:14;;;;;;;;;74.33;60.67;;;;;10.92;60.03;101410.22;5029353;28;49737;-64
2022/03/03 05:53:39;;;;;;;;;84.00;62.33;;;;;10.95;59.83;101412.94;5029744;28;49730;-64
2022/03/03 05:56:11;;;;;;;;;79.67;64.67;;;;;10.40;59.78;101307.13;5029853;28;50737;-64
2022/03/03 05:58:50;;;;;;;;;87.33;69.00;;;;;10.96;59.81;101414.69;5029790;28;49893;-64
2022/03/03 06:01:17;;;;;;;;;79.00;63.00;;;;;10.97;59.96;101403.34;5029502;28;50390;-64
2022/03/03 06:03:46;;;;;;;;;83.67;63.00;;;;;10.46;59.83;101309.06;5029789;28;49931;-64
2022/03/03 06:06:21;;;;;;;;;79.33;60.00;;;;;10.92;60.10;101386.56;5029719;28;49776;-65
2022/03/03 06:09:00;;;;;;;;;84.33;64.00;;;;;11.04;59.99;101405.31;5029813;28;49647;-64
2022/03/03 06:11:27;;;;;;;;;79.67;63.00;;;;;10.72;59.99;101354.47;5029336;28;49968;-64
2022/03/03 06:13:57;;;;;;;;;76.00;60.67;;;;;10.85;60.52;101373.25;5022783;28;49708;-68
2022/03/03 06:16:24;;;;;;;;;80.67;61.00;;;;;11.07;60.01;101398.41;5023402;28;49929;-65
2022/03/03 06:18:49;;;;;;;;;78.67;62.67;;;;;11.06;60.27;101390.47;5029748;28;49762;-65
2022/03/03 06:21:16;;;;;;;;;79.33;62.00;;;;;11.07;60.64;101393.16;5031579;28;50262;-64
2022/03/03 06:23:43;;;;;;;;;78.00;62.00;;;;;11.14;60.24;101404.72;5032958;28;49733;-65
2022/03/03 06:26:12;;;;;;;;;76.00;60.33;;;;;11.15;60.33;101410.03;5032830;28;49674;-64
2022/03/03 06:28:38;;;;;;;;;73.67;60.67;;;;;10.96;60.63;101377.94;5032807;28;49776;-64
2022/03/03 06:31:05;;;;;;;;;81.67;61.33;;;;;11.12;60.76;101404.69;5032485;28;51855;-65
2022/03/03 06:33:30;;;;;;;;;76.33;58.33;;;;;11.19;60.75;101418.88;5032756;28;49706;-64
2022/03/03 06:35:56;;;;;;;;;76.33;60.33;;;;;11.14;60.18;101391.59;5032740;28;49709;-64
2022/03/03 06:38:22;;;;;;;;;75.67;59.67;;;;;11.23;60.66;101404.09;5032760;28;49762;-64
2022/03/03 06:40:48;;;;;;;;;84.67;62.33;;;;;11.05;60.96;101375.56;5035345;28;50450;-82
2022/03/03 06:43:13;;;;;;;;;76.00;59.00;;;;;11.16;60.85;101401.28;5031136;28;49753;-66
2022/03/03 06:45:38;;;;;;;;;72.67;58.00;;;;;11.26;60.73;101412.06;5032368;28;49706;-68
2022/03/03 06:48:04;;;;;;;;;82.25;61.00;;;;;11.26;60.69;101420.84;5036442;28;49755;-67
2022/03/03 06:50:33;;;;;;;;;81.33;62.00;;;;;11.19;60.40;101403.09;5044909;28;49685;-68
2022/03/03 06:53:00;;;;;;;;;78.00;59.00;;;;;11.31;60.67;101426.25;5042932;28;49480;-67
2022/03/03 06:55:26;;;;;;;;;74.33;60.00;;;;;11.05;60.73;101373.81;5046136;28;49635;-68
2022/03/03 06:57:54;;;;;;;;;79.67;62.33;;;;;11.29;60.44;101420.03;5048670;28;49414;-68
2022/03/03 07:00:23;;;;;;;;;81.00;61.00;;;;;11.30;60.40;101417.47;5048383;28;50130;-69
2022/03/03 07:02:49;;;;;;;;;80.33;61.33;;;;;11.28;60.66;101421.78;5036245;28;49767;-67
2022/03/03 07:05:15;;;;;;;;;79.00;62.00;;;;;11.27;60.81;101427.88;5035245;28;49750;-66
2022/03/03 07:07:46;;;;;;;;;80.67;62.67;;;;;11.28;60.21;101428.75;5031122;28;49969;-67
2022/03/03 07:10:13;;;;;;;;;79.67;61.33;;;;;11.32;60.43;101425.41;5031963;28;50894;-65
2022/03/03 07:12:39;;;;;;;;;83.33;66.67;;;;;11.32;60.45;101431.53;5032238;28;49711;-66
2022/03/03 07:15:05;;;;;;;;;78.33;61.33;;;;;11.28;60.30;101429.66;5032186;28;49852;-66
2022/03/03 07:17:46;;;;;;;;;81.67;62.00;;;;;11.07;60.15;101389.63;5032062;28;49911;-66
2022/03/03 07:20:17;;;;;;;;;83.00;67.00;;;;;11.16;60.35;101418.81;5031217;28;50618;-66
2022/03/03 07:23:00;;;;;;;;;79.00;61.33;;;;;11.33;60.24;101428.06;5031864;28;49885;-66
2022/03/03 07:25:36;;;;;;;;;75.33;59.00;;;;;11.33;60.50;101429.81;5031751;28;49790;-66
2022/03/03 07:28:06;;;;;;;;;84.00;64.00;;;;;11.36;59.99;101424.63;5014193;28;50043;-73
2022/03/03 07:30:33;;;;;;;;;80.67;65.00;;;;;11.40;60.39;101411.63;5031716;28;49697;-66
2022/03/03 07:33:06;;;;;;;;;72.75;58.25;;;;;11.10;60.09;101363.47;5031028;28;49803;-64
2022/03/03 07:35:34;;;;;;;;;80.33;62.67;;;;;11.29;59.81;101393.75;5032028;28;49899;-65
2022/03/03 07:38:09;;;;;;;;;84.33;62.00;;;;;11.47;60.02;101421.44;5031859;28;49785;-65
2022/03/03 07:40:35;;;;;;;;;73.67;57.67;;;;;11.48;60.28;101409.19;5031469;28;50303;-64
2022/03/03 07:43:03;;;;;;;;;75.00;59.50;;;;;11.56;59.78;101420.81;5031509;28;50048;-65
2022/03/03 07:45:29;;;;;;;;;77.25;59.25;;;;;11.50;59.91;101402.25;5031393;28;49875;-64
2022/03/03 07:47:56;;;;;;;;;83.00;64.00;;;;;11.67;60.08;101421.97;5031789;28;49859;-64
2022/03/03 07:50:23;;;;;;;;;79.00;60.50;;;;;11.70;59.80;101418.56;5030199;28;51247;-64
2022/03/03 07:52:49;;;;;;;;;76.25;59.75;;;;;11.73;59.76;101421.25;5031399;28;49802;-64
2022/03/03 07:55:15;;;;;;;;;75.75;59.25;;;;;11.77;59.58;101409.97;5031536;28;49578;-64
2022/03/03 07:57:52;;;;;;;;;81.67;62.00;;;;;11.85;59.66;101421.59;5031575;28;50058;-64
2022/03/03 08:00:19;;;;;;;;;75.25;59.00;;;;;11.75;59.41;101390.63;5030859;28;50626;-64
2022/03/03 08:02:47;;;;;;;;;71.75;58.25;;;;;11.97;59.66;101426.31;5031240;28;49962;-64
2022/03/03 08:05:15;;;;;;;;;79.25;63.00;;;;;11.94;59.63;101402.53;5031344;28;49885;-66
2022/03/03 08:07:43;;;;;;;;;74.50;59.00;;;;;12.11;59.66;101418.75;5031578;28;49742;-67
2022/03/03 08:10:10;;;;;;;;;77.33;60.00;;;;;12.05;59.36;101422.13;5031136;28;50557;-64
2022/03/03 08:12:37;;;;;;;;;80.75;60.00;;;;;11.95;59.36;101402.56;5031177;28;49678;-64
2022/03/03 08:15:03;;;;;;;;;81.50;62.25;;;;;12.14;59.37;101416.19;5031144;28;49948;-64
2022/03/03 08:17:32;;;;;;;;;81.00;60.50;;;;;12.23;59.41;101414.69;5031149;28;50045;-64
2022/03/03 08:19:59;;;;;;;;;72.50;57.25;;;;;12.14;59.47;101401.28;5027113;28;50069;-64
2022/03/03 08:22:25;;;;;;;;;76.75;60.00;;;;;12.39;59.51;101415.06;5013058;28;50017;-64
2022/03/03 08:24:54;;;;;;;;;74.00;60.00;;;;;12.47;59.61;101403.88;5030932;28;49662;-64
2022/03/03 08:27:22;;;;;;;;;78.75;60.75;;;;;12.62;59.25;101413.84;5031185;28;49606;-64
2022/03/03 08:29:48;;;;;;;;;66.75;55.50;;;;;12.66;59.64;101414.81;5030852;28;50250;-63
2022/03/03 08:32:16;;;;;;;;;59.25;48.75;;;;;12.69;60.16;101406.97;5030767;28;50006;-64
2022/03/03 08:35:05;;;;;;;;;56.75;46.25;;;;;12.79;60.81;101412.47;5029711;28;49740;-63
2022/03/03 08:37:38;;;;;;;;;57.75;48.00;;;;;12.85;60.54;101409.09;5030802;28;49836;-63
2022/03/03 08:40:07;;;;;;;;;55.00;42.50;;;;;12.89;60.45;101390.75;5030549;28;50595;-63
2022/03/03 08:42:39;;;;;;;;;56.00;45.75;;;;;12.51;60.61;101312.63;5028372;28;49783;-63
2022/03/03 08:45:07;;;;;;;;;56.75;45.75;;;;;13.13;60.51;101413.22;5030132;28;49718;-64
2022/03/03 08:47:32;;;;;;;;;60.25;46.25;;;;;13.15;60.36;101415.03;5030943;28;49772;-63
2022/03/03 08:50:08;;;;;;;;;58.50;47.00;;;;;13.00;60.49;101379.53;5030528;28;50246;-64
2022/03/03 08:52:37;;;;;;;;;57.75;45.75;;;;;13.28;60.74;101423.22;5006817;28;50339;-64
2022/03/03 08:55:03;;;;;;;;;54.75;45.25;;;;;13.35;60.12;101423.38;5024530;28;49878;-64
2022/03/03 08:57:28;;;;;;;;;50.50;40.75;;;;;13.42;60.21;101413.84;5030592;28;49705;-63
2022/03/03 08:59:53;;;;;;;;;55.75;43.75;;;;;13.52;60.11;101412.28;5030704;28;50981;-63
2022/03/03 09:02:20;;;;;;;;;57.25;45.00;;;;;13.39;59.59;101382.09;5030476;28;49708;-64
2022/03/03 09:04:46;;;;;;;;;52.50;43.25;;;;;13.53;59.38;101392.94;5030537;28;49907;-67
2022/03/03 09:07:13;;;;;;;;;51.25;42.00;;;;;13.77;59.29;101425.03;5030760;28;49946;-74
2022/03/03 09:09:38;;;;;;;;;53.50;40.75;;;;;13.83;59.20;101433.06;5030149;28;51818;-66
2022/03/03 09:12:05;;;;;;;;;60.75;48.50;;;;;13.87;59.13;101421.69;5029911;28;49945;-65
2022/03/03 09:14:30;;;;;;;;;54.25;44.00;;;;;13.94;58.74;101428.88;5030315;28;50003;-65
2022/03/03 09:16:56;;;;;;;;;57.25;45.00;;;;;13.50;58.60;101350.66;5030330;28;49689;-65
2022/03/03 09:19:21;;;;;;;;;51.25;41.00;;;;;13.83;58.75;101403.16;5030109;28;50870;-64
2022/03/03 09:21:47;;;;;;;;;52.75;43.00;;;;;13.54;58.83;101352.50;5030139;28;49854;-62
2022/03/03 09:24:12;;;;;;;;;56.25;46.00;;;;;13.91;58.74;101413.00;5030170;28;50065;-63
2022/03/03 09:26:38;;;;;;;;;57.25;45.50;;;;;14.05;58.71;101421.13;5012426;28;49958;-61
2022/03/03 09:29:03;;;;;;;;;56.25;46.75;;;;;14.13;58.30;101421.28;5029718;28;51066;-61
2022/03/03 09:31:28;;;;;;;;;54.50;45.00;;;;;13.82;58.60;101357.41;5011869;28;49905;-63
2022/03/03 09:33:54;;;;;;;;;59.00;47.75;;;;;14.27;58.14;101417.09;5029985;28;49707;-63
2022/03/03 09:36:19;;;;;;;;;57.00;45.00;;;;;14.34;58.13;101421.63;5030089;28;49956;-63
2022/03/03 09:38:45;;;;;;;;;57.00;45.25;;;;;14.45;57.88;101422.69;5029851;28;50701;-63
2022/03/03 09:41:11;;;;;;;;;52.75;44.25;;;;;14.49;57.45;101413.09;5030103;28;49729;-66
2022/03/03 09:43:40;;;;;;;;;54.00;42.25;;;;;14.63;57.37;101408.88;5029942;28;49917;-65
2022/03/03 09:46:05;;;;;;;;;56.00;45.25;;;;;14.50;57.60;101372.59;5029949;28;49875;-67
2022/03/03 09:48:32;;;;;;;;;51.25;42.50;;;;;14.56;56.63;101365.63;5029749;28;49809;-66
2022/03/03 09:50:57;;;;;;;;;56.00;45.50;;;;;14.87;56.55;101406.59;5029673;28;49935;-66
2022/03/03 09:53:22;;;;;;;;;55.50;44.75;;;;;14.92;56.39;101414.56;5011848;28;50322;-66
2022/03/03 09:55:49;;;;;;;;;57.25;44.00;;;;;14.97;56.15;101404.09;5031528;28;50071;-66
2022/03/03 09:58:16;;;;;;;;;54.75;44.25;;;;;14.80;55.97;101369.50;5033131;28;49552;-66
2022/03/03 10:00:41;;;;;;;;;61.75;46.00;;;;;15.08;55.69;101411.28;5033235;28;49781;-66
2022/03/03 10:03:10;;;;;;;;;53.50;42.50;;;;;15.05;55.71;101394.47;5033100;28;49617;-67
2022/03/03 10:05:51;;;;;;;;;50.00;42.75;;;;;15.19;55.56;101414.06;5033298;28;49953;-66
2022/03/03 10:08:22;;;;;;;;;54.00;44.25;;;;;15.27;55.45;101411.50;5032662;28;50381;-66
2022/03/03 10:10:50;;;;;;;;;49.75;42.50;;;;;15.17;54.90;101405.22;5033057;28;49800;-66
2022/03/03 10:13:17;;;;;;;;;59.50;47.75;;;;;15.09;55.37;101383.06;5033133;28;49729;-66
2022/03/03 10:15:56;;;;;;;;;56.50;43.25;;;;;14.87;54.62;101340.50;5033378;28;49590;-66
2022/03/03 10:18:23;;;;;;;;;56.50;45.50;;;;;15.32;55.30;101401.84;5033300;28;50634;-66
2022/03/03 10:20:50;;;;;;;;;59.50;45.25;;;;;15.33;55.06;101414.19;5032852;28;49650;-66
2022/03/03 10:23:16;;;;;;;;;62.00;48.25;;;;;15.09;55.47;101386.59;5032927;28;49852;-66
2022/03/03 10:25:44;;;;;;;;;51.50;44.00;;;;;15.27;55.52;101408.84;5032844;28;49666;-66
2022/03/03 10:28:13;;;;;;;;;53.25;43.50;;;;;15.30;55.88;101401.84;5032611;28;49757;-66
2022/03/03 10:30:57;;;;;;;;;53.50;45.00;;;;;15.36;55.43;101398.38;5032743;28;49809;-65
2022/03/03 10:33:26;;;;;;;;;61.50;47.25;;;;;15.03;54.86;101346.84;5032841;28;49729;-66
2022/03/03 10:36:06;;;;;;;;;56.75;44.75;;;;;15.41;55.57;101408.13;5033090;28;49985;-66
2022/03/03 10:38:33;;;;;;;;;56.00;45.75;;;;;15.50;55.33;101396.75;5032549;28;50233;-66
2022/03/03 10:40:59;;;;;;;;;48.75;41.75;;;;;15.39;55.21;101371.94;5032608;28;49805;-66
2022/03/03 10:43:24;;;;;;;;;53.75;43.25;;;;;15.49;54.98;101386.16;5032636;28;49863;-66
2022/03/03 10:45:58;;;;;;;;;58.00;43.25;;;;;15.64;54.84;101405.78;5032544;28;49643;-66
2022/03/03 10:48:26;;;;;;;;;49.75;41.50;;;;;15.65;54.92;101398.72;5032319;28;50509;-66
2022/03/03 10:50:54;;;;;;;;;56.25;44.25;;;;;15.66;54.58;101385.50;5032567;28;49627;-67
2022/03/03 10:53:22;;;;;;;;;58.00;45.50;;;;;15.85;54.54;101398.94;5032684;28;49787;-66
2022/03/03 10:56:08;;;;;;;;;61.00;47.25;;;;;15.81;54.28;101400.63;5032991;28;50192;-66
2022/03/03 10:58:43;;;;;;;;;54.50;45.75;;;;;16.03;54.17;101397.34;5032358;28;51485;-65
2022/03/03 11:01:09;;;;;;;;;46.25;40.00;;;;;15.98;53.83;101364.63;5032153;28;49727;-67
2022/03/03 11:03:35;;;;;;;;;54.25;44.25;;;;;16.24;53.38;101395.72;5032256;28;50437;-66
2022/03/03 11:06:02;;;;;;;;;52.00;42.75;;;;;15.97;53.53;101367.25;5013586;28;49976;-66
2022/03/03 11:08:29;;;;;;;;;57.50;44.25;;;;;16.11;53.22;101381.47;5031091;28;50647;-67